sensor_id;sensor_type;location;lat;lon;timestamp;temperature;humidity
16879;DHT22;8556;52.218;9.884;2023-02-23T00:01:14;5.90;99.90
16879;DHT22;8556;52.218;9.884;2023-02-23T00:03:41;5.70;99.90
16879;DHT22;8556;52.218;9.884;2023-02-23T00:06:09;5.80;99.90
16879;DHT22;8556;52.218;9.884;2023-02-23T00:08:37;5.80;99.90
16879;DHT22;8556;52.218;9.884;2023-02-23T00:11:05;5.90;99.90
16879;DHT22;8556;52.218;9.884;2023-02-23T00:13:32;6.10;99.90
16879;DHT22;8556;52.218;9.884;2023-02-23T00:16:04;6.20;99.90
16879;DHT22;8556;52.218;9.884;2023-02-23T00:18:33;6.30;99.90
16879;DHT22;8556;52.218;9.884;2023-02-23T00:21:11;6.40;99.90
16879;DHT22;8556;52.218;9.884;2023-02-23T00:23:40;6.40;99.90
16879;DHT22;8556;52.218;9.884;2023-02-23T00:26:06;6.50;99.90
16879;DHT22;8556;52.218;9.884;2023-02-23T00:28:33;6.40;99.90
16879;DHT22;8556;52.218;9.884;2023-02-23T00:31:01;6.40;99.90
16879;DHT22;8556;52.218;9.884;2023-02-23T00:33:28;6.40;99.90
16879;DHT22;8556;52.218;9.884;2023-02-23T00:36:02;6.50;99.90
16879;DHT22;8556;52.218;9.884;2023-02-23T00:38:29;6.50;99.90
16879;DHT22;8556;52.218;9.884;2023-02-23T00:40:59;6.50;99.90
16879;DHT22;8556;52.218;9.884;2023-02-23T00:43:26;6.50;99.90
16879;DHT22;8556;52.218;9.884;2023-02-23T00:45:54;6.60;99.90
16879;DHT22;8556;52.218;9.884;2023-02-23T00:48:21;6.70;99.90
16879;DHT22;8556;52.218;9.884;2023-02-23T00:50:58;6.60;99.90
16879;DHT22;8556;52.218;9.884;2023-02-23T00:53:25;6.60;99.90
16879;DHT22;8556;52.218;9.884;2023-02-23T00:55:52;6.70;99.90
16879;DHT22;8556;52.218;9.884;2023-02-23T00:58:19;6.70;99.90
16879;DHT22;8556;52.218;9.884;2023-02-23T01:00:46;6.70;99.90
16879;DHT22;8556;52.218;9.884;2023-02-23T01:03:13;6.80;99.90
16879;DHT22;8556;52.218;9.884;2023-02-23T01:05:40;6.80;99.90
16879;DHT22;8556;52.218;9.884;2023-02-23T01:08:10;6.90;99.90
16879;DHT22;8556;52.218;9.884;2023-02-23T01:10:39;6.90;99.90
16879;DHT22;8556;52.218;9.884;2023-02-23T01:13:07;6.90;99.90
16879;DHT22;8556;52.218;9.884;2023-02-23T01:15:39;6.90;99.90
16879;DHT22;8556;52.218;9.884;2023-02-23T01:18:06;7.00;99.90
16879;DHT22;8556;52.218;9.884;2023-02-23T01:20:34;7.00;99.90
16879;DHT22;8556;52.218;9.884;2023-02-23T01:23:02;7.10;99.90
16879;DHT22;8556;52.218;9.884;2023-02-23T01:25:32;7.30;99.90
16879;DHT22;8556;52.218;9.884;2023-02-23T01:27:59;7.50;99.90
16879;DHT22;8556;52.218;9.884;2023-02-23T01:30:26;7.40;99.90
16879;DHT22;8556;52.218;9.884;2023-02-23T01:32:53;7.60;99.90
16879;DHT22;8556;52.218;9.884;2023-02-23T01:35:20;7.40;99.90
16879;DHT22;8556;52.218;9.884;2023-02-23T01:37:47;7.40;99.90
16879;DHT22;8556;52.218;9.884;2023-02-23T01:40:15;7.50;99.90
16879;DHT22;8556;52.218;9.884;2023-02-23T01:42:45;7.40;99.90
16879;DHT22;8556;52.218;9.884;2023-02-23T01:45:23;7.40;99.90
16879;DHT22;8556;52.218;9.884;2023-02-23T01:47:53;7.40;99.90
16879;DHT22;8556;52.218;9.884;2023-02-23T01:50:22;7.30;99.90
16879;DHT22;8556;52.218;9.884;2023-02-23T01:52:51;7.30;99.90
16879;DHT22;8556;52.218;9.884;2023-02-23T01:55:19;7.30;99.90
16879;DHT22;8556;52.218;9.884;2023-02-23T01:57:54;7.40;99.90
16879;DHT22;8556;52.218;9.884;2023-02-23T02:00:22;7.40;99.90
16879;DHT22;8556;52.218;9.884;2023-02-23T02:02:51;7.30;99.90
16879;DHT22;8556;52.218;9.884;2023-02-23T02:05:19;7.30;99.90
16879;DHT22;8556;52.218;9.884;2023-02-23T02:07:48;7.40;99.90
16879;DHT22;8556;52.218;9.884;2023-02-23T02:10:23;7.50;99.90
16879;DHT22;8556;52.218;9.884;2023-02-23T02:13:16;7.40;99.90
16879;DHT22;8556;52.218;9.884;2023-02-23T02:16:12;7.40;99.90
16879;DHT22;8556;52.218;9.884;2023-02-23T02:18:56;7.40;99.90
16879;DHT22;8556;52.218;9.884;2023-02-23T02:21:55;7.40;99.90
16879;DHT22;8556;52.218;9.884;2023-02-23T02:25:00;7.40;99.90
16879;DHT22;8556;52.218;9.884;2023-02-23T02:27:53;7.40;99.90
16879;DHT22;8556;52.218;9.884;2023-02-23T02:30:47;7.30;99.90
16879;DHT22;8556;52.218;9.884;2023-02-23T02:33:46;7.40;99.90
16879;DHT22;8556;52.218;9.884;2023-02-23T02:36:46;7.40;99.90
16879;DHT22;8556;52.218;9.884;2023-02-23T02:39:22;7.30;99.90
16879;DHT22;8556;52.218;9.884;2023-02-23T02:42:08;7.30;99.90
16879;DHT22;8556;52.218;9.884;2023-02-23T02:44:44;7.30;99.90
16879;DHT22;8556;52.218;9.884;2023-02-23T02:47:17;7.20;99.90
16879;DHT22;8556;52.218;9.884;2023-02-23T02:49:50;7.20;99.90
16879;DHT22;8556;52.218;9.884;2023-02-23T02:52:24;7.20;99.90
16879;DHT22;8556;52.218;9.884;2023-02-23T02:54:57;7.20;99.90
16879;DHT22;8556;52.218;9.884;2023-02-23T02:57:26;7.30;99.90
16879;DHT22;8556;52.218;9.884;2023-02-23T02:59:54;7.30;99.90
16879;DHT22;8556;52.218;9.884;2023-02-23T03:02:41;7.20;99.90
16879;DHT22;8556;52.218;9.884;2023-02-23T03:05:29;7.20;99.90
16879;DHT22;8556;52.218;9.884;2023-02-23T03:08:20;7.10;99.90
16879;DHT22;8556;52.218;9.884;2023-02-23T03:11:06;7.10;99.90
16879;DHT22;8556;52.218;9.884;2023-02-23T03:14:01;7.20;99.90
16879;DHT22;8556;52.218;9.884;2023-02-23T03:16:55;7.00;99.90
16879;DHT22;8556;52.218;9.884;2023-02-23T03:19:49;6.90;99.90
16879;DHT22;8556;52.218;9.884;2023-02-23T03:22:39;6.90;99.90
16879;DHT22;8556;52.218;9.884;2023-02-23T03:25:31;6.90;99.90
16879;DHT22;8556;52.218;9.884;2023-02-23T03:28:20;6.90;99.90
16879;DHT22;8556;52.218;9.884;2023-02-23T03:31:12;6.90;99.90
16879;DHT22;8556;52.218;9.884;2023-02-23T03:34:04;6.80;99.90
16879;DHT22;8556;52.218;9.884;2023-02-23T03:36:56;6.80;99.90
16879;DHT22;8556;52.218;9.884;2023-02-23T03:39:46;6.80;99.90
16879;DHT22;8556;52.218;9.884;2023-02-23T03:42:36;6.70;99.90
16879;DHT22;8556;52.218;9.884;2023-02-23T03:45:23;6.80;99.90
16879;DHT22;8556;52.218;9.884;2023-02-23T03:48:09;6.70;99.90
16879;DHT22;8556;52.218;9.884;2023-02-23T03:50:57;6.70;99.90
16879;DHT22;8556;52.218;9.884;2023-02-23T03:53:47;6.90;99.90
16879;DHT22;8556;52.218;9.884;2023-02-23T03:56:37;6.90;99.90
16879;DHT22;8556;52.218;9.884;2023-02-23T03:59:27;7.00;99.90
16879;DHT22;8556;52.218;9.884;2023-02-23T04:02:15;6.90;99.90
16879;DHT22;8556;52.218;9.884;2023-02-23T04:05:04;6.90;99.90
16879;DHT22;8556;52.218;9.884;2023-02-23T04:07:53;6.90;99.90
16879;DHT22;8556;52.218;9.884;2023-02-23T04:10:43;7.00;99.90
16879;DHT22;8556;52.218;9.884;2023-02-23T04:13:30;6.80;99.90
16879;DHT22;8556;52.218;9.884;2023-02-23T04:16:02;6.70;99.90
16879;DHT22;8556;52.218;9.884;2023-02-23T04:18:31;6.70;99.90
16879;DHT22;8556;52.218;9.884;2023-02-23T04:20:58;6.80;99.90
16879;DHT22;8556;52.218;9.884;2023-02-23T04:23:26;6.70;99.90
16879;DHT22;8556;52.218;9.884;2023-02-23T04:25:53;6.70;99.90
16879;DHT22;8556;52.218;9.884;2023-02-23T04:28:21;6.60;99.90
16879;DHT22;8556;52.218;9.884;2023-02-23T04:30:48;6.50;99.90
16879;DHT22;8556;52.218;9.884;2023-02-23T04:33:18;6.50;99.90
16879;DHT22;8556;52.218;9.884;2023-02-23T04:35:46;6.60;99.90
16879;DHT22;8556;52.218;9.884;2023-02-23T04:38:12;6.60;99.90
16879;DHT22;8556;52.218;9.884;2023-02-23T04:40:39;6.60;99.90
16879;DHT22;8556;52.218;9.884;2023-02-23T04:43:06;6.60;99.90
16879;DHT22;8556;52.218;9.884;2023-02-23T04:45:33;6.60;99.90
16879;DHT22;8556;52.218;9.884;2023-02-23T04:47:59;6.60;99.90
16879;DHT22;8556;52.218;9.884;2023-02-23T04:50:28;6.70;99.90
16879;DHT22;8556;52.218;9.884;2023-02-23T04:52:54;6.70;99.90
16879;DHT22;8556;52.218;9.884;2023-02-23T04:55:23;6.60;99.90
16879;DHT22;8556;52.218;9.884;2023-02-23T04:57:50;6.60;99.90
16879;DHT22;8556;52.218;9.884;2023-02-23T05:00:18;6.40;99.90
16879;DHT22;8556;52.218;9.884;2023-02-23T05:02:45;6.50;99.90
16879;DHT22;8556;52.218;9.884;2023-02-23T05:05:11;6.40;99.90
16879;DHT22;8556;52.218;9.884;2023-02-23T05:07:40;6.30;99.90
16879;DHT22;8556;52.218;9.884;2023-02-23T05:10:07;6.50;99.90
16879;DHT22;8556;52.218;9.884;2023-02-23T05:12:34;6.30;99.90
16879;DHT22;8556;52.218;9.884;2023-02-23T05:15:01;6.20;99.90
16879;DHT22;8556;52.218;9.884;2023-02-23T05:17:28;6.20;99.90
16879;DHT22;8556;52.218;9.884;2023-02-23T05:19:55;6.30;99.90
16879;DHT22;8556;52.218;9.884;2023-02-23T05:22:22;6.30;99.90
16879;DHT22;8556;52.218;9.884;2023-02-23T05:24:50;6.30;99.90
16879;DHT22;8556;52.218;9.884;2023-02-23T05:27:17;6.30;99.90
16879;DHT22;8556;52.218;9.884;2023-02-23T05:29:43;6.40;99.90
16879;DHT22;8556;52.218;9.884;2023-02-23T05:32:10;6.50;99.90
16879;DHT22;8556;52.218;9.884;2023-02-23T05:34:37;6.50;99.90
16879;DHT22;8556;52.218;9.884;2023-02-23T05:37:06;6.50;99.90
16879;DHT22;8556;52.218;9.884;2023-02-23T05:39:33;6.50;99.90
16879;DHT22;8556;52.218;9.884;2023-02-23T05:42:01;6.70;99.90
16879;DHT22;8556;52.218;9.884;2023-02-23T05:44:28;6.60;99.90
16879;DHT22;8556;52.218;9.884;2023-02-23T05:46:55;6.60;99.90
16879;DHT22;8556;52.218;9.884;2023-02-23T05:49:22;6.60;99.90
16879;DHT22;8556;52.218;9.884;2023-02-23T05:51:49;6.50;99.90
16879;DHT22;8556;52.218;9.884;2023-02-23T05:54:16;6.50;99.90
16879;DHT22;8556;52.218;9.884;2023-02-23T05:56:42;6.50;99.90
16879;DHT22;8556;52.218;9.884;2023-02-23T05:59:11;6.60;99.90
16879;DHT22;8556;52.218;9.884;2023-02-23T06:01:37;6.60;99.90
16879;DHT22;8556;52.218;9.884;2023-02-23T06:04:04;6.60;99.90
16879;DHT22;8556;52.218;9.884;2023-02-23T06:06:31;6.60;99.90
16879;DHT22;8556;52.218;9.884;2023-02-23T06:08:58;6.60;99.90
16879;DHT22;8556;52.218;9.884;2023-02-23T06:11:26;6.50;99.90
16879;DHT22;8556;52.218;9.884;2023-02-23T06:13:52;6.60;99.90
16879;DHT22;8556;52.218;9.884;2023-02-23T06:16:21;6.50;99.90
16879;DHT22;8556;52.218;9.884;2023-02-23T06:18:48;6.50;99.90
16879;DHT22;8556;52.218;9.884;2023-02-23T06:21:14;6.50;99.90
16879;DHT22;8556;52.218;9.884;2023-02-23T06:23:41;6.60;99.90
16879;DHT22;8556;52.218;9.884;2023-02-23T06:26:08;6.60;99.90
16879;DHT22;8556;52.218;9.884;2023-02-23T06:28:35;6.60;99.90
16879;DHT22;8556;52.218;9.884;2023-02-23T06:31:02;6.70;99.90
16879;DHT22;8556;52.218;9.884;2023-02-23T06:33:30;6.80;99.90
16879;DHT22;8556;52.218;9.884;2023-02-23T06:35:57;6.70;99.90
16879;DHT22;8556;52.218;9.884;2023-02-23T06:38:24;6.80;99.90
16879;DHT22;8556;52.218;9.884;2023-02-23T06:40:50;6.80;99.90
16879;DHT22;8556;52.218;9.884;2023-02-23T06:43:17;6.80;99.90
16879;DHT22;8556;52.218;9.884;2023-02-23T06:45:45;6.80;99.90
16879;DHT22;8556;52.218;9.884;2023-02-23T06:48:12;6.60;99.90
16879;DHT22;8556;52.218;9.884;2023-02-23T06:50:40;6.50;99.90
16879;DHT22;8556;52.218;9.884;2023-02-23T06:53:08;6.60;99.90
16879;DHT22;8556;52.218;9.884;2023-02-23T06:55:34;6.60;99.90
16879;DHT22;8556;52.218;9.884;2023-02-23T06:58:01;6.60;99.90
16879;DHT22;8556;52.218;9.884;2023-02-23T07:00:31;6.80;99.90
16879;DHT22;8556;52.218;9.884;2023-02-23T07:02:58;6.80;99.90
16879;DHT22;8556;52.218;9.884;2023-02-23T07:05:25;6.90;99.90
16879;DHT22;8556;52.218;9.884;2023-02-23T07:07:53;6.90;99.90
16879;DHT22;8556;52.218;9.884;2023-02-23T07:10:20;7.00;99.90
16879;DHT22;8556;52.218;9.884;2023-02-23T07:12:47;7.00;99.90
16879;DHT22;8556;52.218;9.884;2023-02-23T07:15:13;7.00;99.90
16879;DHT22;8556;52.218;9.884;2023-02-23T07:17:43;7.00;99.90
16879;DHT22;8556;52.218;9.884;2023-02-23T07:20:13;7.00;99.90
16879;DHT22;8556;52.218;9.884;2023-02-23T07:22:40;7.00;99.90
16879;DHT22;8556;52.218;9.884;2023-02-23T07:25:09;7.10;99.90
16879;DHT22;8556;52.218;9.884;2023-02-23T07:27:35;7.00;99.90
16879;DHT22;8556;52.218;9.884;2023-02-23T07:30:03;7.00;99.90
16879;DHT22;8556;52.218;9.884;2023-02-23T07:32:30;7.10;99.90
16879;DHT22;8556;52.218;9.884;2023-02-23T07:34:57;7.10;99.90
16879;DHT22;8556;52.218;9.884;2023-02-23T07:37:23;7.20;99.90
16879;DHT22;8556;52.218;9.884;2023-02-23T07:39:50;7.20;99.90
16879;DHT22;8556;52.218;9.884;2023-02-23T07:42:18;7.20;99.90
16879;DHT22;8556;52.218;9.884;2023-02-23T07:44:45;7.10;99.90
16879;DHT22;8556;52.218;9.884;2023-02-23T07:47:12;7.20;99.90
16879;DHT22;8556;52.218;9.884;2023-02-23T07:49:39;7.20;99.90
16879;DHT22;8556;52.218;9.884;2023-02-23T07:52:05;7.20;99.90
16879;DHT22;8556;52.218;9.884;2023-02-23T07:54:32;7.20;99.90
16879;DHT22;8556;52.218;9.884;2023-02-23T07:56:59;7.30;99.90
16879;DHT22;8556;52.218;9.884;2023-02-23T07:59:27;7.40;99.90
16879;DHT22;8556;52.218;9.884;2023-02-23T08:01:54;7.40;99.90
16879;DHT22;8556;52.218;9.884;2023-02-23T08:04:21;7.50;99.90
16879;DHT22;8556;52.218;9.884;2023-02-23T08:06:48;7.60;99.90
16879;DHT22;8556;52.218;9.884;2023-02-23T08:09:15;7.80;99.90
16879;DHT22;8556;52.218;9.884;2023-02-23T08:11:41;7.70;99.90
16879;DHT22;8556;52.218;9.884;2023-02-23T08:14:09;8.00;99.90
16879;DHT22;8556;52.218;9.884;2023-02-23T08:16:38;7.90;99.90
16879;DHT22;8556;52.218;9.884;2023-02-23T08:19:05;8.10;99.90
16879;DHT22;8556;52.218;9.884;2023-02-23T08:21:32;8.20;99.90
16879;DHT22;8556;52.218;9.884;2023-02-23T08:24:01;8.20;99.90
16879;DHT22;8556;52.218;9.884;2023-02-23T08:26:28;8.30;99.90
16879;DHT22;8556;52.218;9.884;2023-02-23T08:28:55;8.40;99.90
16879;DHT22;8556;52.218;9.884;2023-02-23T08:31:22;8.40;99.90
16879;DHT22;8556;52.218;9.884;2023-02-23T08:33:51;8.50;99.90
16879;DHT22;8556;52.218;9.884;2023-02-23T08:36:18;8.50;99.90
16879;DHT22;8556;52.218;9.884;2023-02-23T08:38:45;8.50;99.90
16879;DHT22;8556;52.218;9.884;2023-02-23T08:41:12;8.60;99.90
16879;DHT22;8556;52.218;9.884;2023-02-23T08:43:39;8.60;99.90
16879;DHT22;8556;52.218;9.884;2023-02-23T08:46:06;8.60;99.90
16879;DHT22;8556;52.218;9.884;2023-02-23T08:48:34;8.70;99.90
16879;DHT22;8556;52.218;9.884;2023-02-23T08:51:05;8.70;99.90
16879;DHT22;8556;52.218;9.884;2023-02-23T08:53:32;8.70;99.90
16879;DHT22;8556;52.218;9.884;2023-02-23T08:56:00;8.70;99.90
16879;DHT22;8556;52.218;9.884;2023-02-23T08:58:28;8.70;99.90
16879;DHT22;8556;52.218;9.884;2023-02-23T09:00:56;8.70;99.90
16879;DHT22;8556;52.218;9.884;2023-02-23T09:03:24;8.80;99.90
16879;DHT22;8556;52.218;9.884;2023-02-23T09:05:53;8.80;99.90
16879;DHT22;8556;52.218;9.884;2023-02-23T09:08:22;8.80;99.90
16879;DHT22;8556;52.218;9.884;2023-02-23T09:10:49;8.80;99.90
16879;DHT22;8556;52.218;9.884;2023-02-23T09:13:16;8.80;99.90
16879;DHT22;8556;52.218;9.884;2023-02-23T09:15:43;8.80;99.90
16879;DHT22;8556;52.218;9.884;2023-02-23T09:18:12;8.80;99.90
16879;DHT22;8556;52.218;9.884;2023-02-23T09:20:40;8.80;99.90
16879;DHT22;8556;52.218;9.884;2023-02-23T09:23:07;8.80;99.90
16879;DHT22;8556;52.218;9.884;2023-02-23T09:25:38;8.80;99.90
16879;DHT22;8556;52.218;9.884;2023-02-23T09:28:08;8.80;99.90
16879;DHT22;8556;52.218;9.884;2023-02-23T09:30:36;8.80;99.90
16879;DHT22;8556;52.218;9.884;2023-02-23T09:33:03;8.80;99.90
16879;DHT22;8556;52.218;9.884;2023-02-23T09:35:32;8.90;99.90
16879;DHT22;8556;52.218;9.884;2023-02-23T09:37:59;8.60;99.90
16879;DHT22;8556;52.218;9.884;2023-02-23T09:40:30;8.60;99.90
16879;DHT22;8556;52.218;9.884;2023-02-23T09:43:09;8.60;99.90
16879;DHT22;8556;52.218;9.884;2023-02-23T09:45:40;8.60;99.90
16879;DHT22;8556;52.218;9.884;2023-02-23T09:48:13;8.60;99.90
16879;DHT22;8556;52.218;9.884;2023-02-23T09:50:45;8.50;99.90
16879;DHT22;8556;52.218;9.884;2023-02-23T09:53:33;8.50;99.90
16879;DHT22;8556;52.218;9.884;2023-02-23T09:56:06;8.50;99.90
16879;DHT22;8556;52.218;9.884;2023-02-23T09:58:36;8.50;99.90
16879;DHT22;8556;52.218;9.884;2023-02-23T10:01:36;8.50;99.90
16879;DHT22;8556;52.218;9.884;2023-02-23T10:04:10;8.60;99.90
16879;DHT22;8556;52.218;9.884;2023-02-23T10:06:40;8.60;99.90
16879;DHT22;8556;52.218;9.884;2023-02-23T10:09:16;8.60;99.90
16879;DHT22;8556;52.218;9.884;2023-02-23T10:11:47;8.60;99.90
16879;DHT22;8556;52.218;9.884;2023-02-23T10:17:14;8.50;99.90
16879;DHT22;8556;52.218;9.884;2023-02-23T10:19:48;8.60;99.90
16879;DHT22;8556;52.218;9.884;2023-02-23T10:22:16;8.50;99.90
16879;DHT22;8556;52.218;9.884;2023-02-23T10:24:51;8.70;99.90
16879;DHT22;8556;52.218;9.884;2023-02-23T10:27:20;8.60;99.90
16879;DHT22;8556;52.218;9.884;2023-02-23T10:29:52;8.60;99.90
16879;DHT22;8556;52.218;9.884;2023-02-23T10:32:25;8.50;99.90
16879;DHT22;8556;52.218;9.884;2023-02-23T10:34:55;8.50;99.90
16879;DHT22;8556;52.218;9.884;2023-02-23T10:37:22;8.50;99.90
16879;DHT22;8556;52.218;9.884;2023-02-23T10:39:50;8.50;99.90
16879;DHT22;8556;52.218;9.884;2023-02-23T10:42:21;8.40;99.90
16879;DHT22;8556;52.218;9.884;2023-02-23T10:44:50;8.40;99.90
16879;DHT22;8556;52.218;9.884;2023-02-23T10:47:18;8.50;99.90
16879;DHT22;8556;52.218;9.884;2023-02-23T10:49:47;8.50;99.90
16879;DHT22;8556;52.218;9.884;2023-02-23T10:52:19;8.50;99.90
16879;DHT22;8556;52.218;9.884;2023-02-23T10:54:48;8.50;99.90
16879;DHT22;8556;52.218;9.884;2023-02-23T10:57:23;8.50;99.90
16879;DHT22;8556;52.218;9.884;2023-02-23T11:00:03;8.50;99.90
16879;DHT22;8556;52.218;9.884;2023-02-23T11:02:30;8.40;99.90
16879;DHT22;8556;52.218;9.884;2023-02-23T11:04:59;8.40;99.90
16879;DHT22;8556;52.218;9.884;2023-02-23T11:07:28;8.50;99.90
16879;DHT22;8556;52.218;9.884;2023-02-23T11:09:55;8.40;99.90
16879;DHT22;8556;52.218;9.884;2023-02-23T11:12:24;8.40;99.90
16879;DHT22;8556;52.218;9.884;2023-02-23T11:14:54;8.50;99.90
16879;DHT22;8556;52.218;9.884;2023-02-23T11:17:29;8.40;99.90
16879;DHT22;8556;52.218;9.884;2023-02-23T11:19:59;8.40;99.90
16879;DHT22;8556;52.218;9.884;2023-02-23T11:22:30;8.40;99.90
16879;DHT22;8556;52.218;9.884;2023-02-23T11:24:59;8.50;99.90
16879;DHT22;8556;52.218;9.884;2023-02-23T11:27:26;8.50;99.90
16879;DHT22;8556;52.218;9.884;2023-02-23T11:29:55;8.50;99.90
16879;DHT22;8556;52.218;9.884;2023-02-23T11:32:28;8.50;99.90
16879;DHT22;8556;52.218;9.884;2023-02-23T11:35:24;8.60;99.90
16879;DHT22;8556;52.218;9.884;2023-02-23T11:37:53;8.60;99.90
16879;DHT22;8556;52.218;9.884;2023-02-23T11:40:22;8.60;99.90
16879;DHT22;8556;52.218;9.884;2023-02-23T11:42:52;8.50;99.90
16879;DHT22;8556;52.218;9.884;2023-02-23T11:45:21;8.60;99.90
16879;DHT22;8556;52.218;9.884;2023-02-23T11:47:51;8.70;99.90
16879;DHT22;8556;52.218;9.884;2023-02-23T11:50:24;8.80;99.90
16879;DHT22;8556;52.218;9.884;2023-02-23T11:52:55;8.80;99.90
16879;DHT22;8556;52.218;9.884;2023-02-23T11:55:23;8.80;99.90
16879;DHT22;8556;52.218;9.884;2023-02-23T11:57:51;8.70;99.90
16879;DHT22;8556;52.218;9.884;2023-02-23T12:00:24;8.80;99.90
16879;DHT22;8556;52.218;9.884;2023-02-23T12:02:55;8.80;99.90
16879;DHT22;8556;52.218;9.884;2023-02-23T12:05:25;8.90;99.90
16879;DHT22;8556;52.218;9.884;2023-02-23T12:07:57;8.90;99.90
16879;DHT22;8556;52.218;9.884;2023-02-23T12:10:28;8.90;99.90
16879;DHT22;8556;52.218;9.884;2023-02-23T12:13:03;9.10;99.90
16879;DHT22;8556;52.218;9.884;2023-02-23T12:15:41;9.00;99.90
16879;DHT22;8556;52.218;9.884;2023-02-23T12:18:18;8.90;99.90
16879;DHT22;8556;52.218;9.884;2023-02-23T12:20:49;9.10;99.90
16879;DHT22;8556;52.218;9.884;2023-02-23T12:23:21;8.90;99.90
16879;DHT22;8556;52.218;9.884;2023-02-23T12:25:53;9.00;99.90
16879;DHT22;8556;52.218;9.884;2023-02-23T12:28:26;9.00;99.90
16879;DHT22;8556;52.218;9.884;2023-02-23T12:30:59;9.10;99.90
16879;DHT22;8556;52.218;9.884;2023-02-23T12:33:32;9.00;99.90
16879;DHT22;8556;52.218;9.884;2023-02-23T12:36:03;9.10;99.90
16879;DHT22;8556;52.218;9.884;2023-02-23T12:38:43;9.20;99.90
16879;DHT22;8556;52.218;9.884;2023-02-23T12:41:17;9.20;99.90
16879;DHT22;8556;52.218;9.884;2023-02-23T12:43:48;9.20;99.90
16879;DHT22;8556;52.218;9.884;2023-02-23T12:46:19;9.20;99.90
16879;DHT22;8556;52.218;9.884;2023-02-23T12:48:55;9.20;99.90
16879;DHT22;8556;52.218;9.884;2023-02-23T12:51:27;9.00;99.90
16879;DHT22;8556;52.218;9.884;2023-02-23T12:53:55;9.00;99.90
16879;DHT22;8556;52.218;9.884;2023-02-23T12:56:31;9.20;99.90
16879;DHT22;8556;52.218;9.884;2023-02-23T12:59:12;9.20;99.90
16879;DHT22;8556;52.218;9.884;2023-02-23T13:01:45;9.10;99.90
16879;DHT22;8556;52.218;9.884;2023-02-23T13:04:31;9.10;99.90
16879;DHT22;8556;52.218;9.884;2023-02-23T13:07:07;9.10;99.90
16879;DHT22;8556;52.218;9.884;2023-02-23T13:09:44;9.10;99.90
16879;DHT22;8556;52.218;9.884;2023-02-23T13:12:27;9.10;99.90
16879;DHT22;8556;52.218;9.884;2023-02-23T13:15:01;9.10;99.90
16879;DHT22;8556;52.218;9.884;2023-02-23T13:17:39;9.00;99.90
16879;DHT22;8556;52.218;9.884;2023-02-23T13:20:16;9.00;99.90
16879;DHT22;8556;52.218;9.884;2023-02-23T13:22:50;8.80;99.90
16879;DHT22;8556;52.218;9.884;2023-02-23T13:25:27;8.90;99.90
16879;DHT22;8556;52.218;9.884;2023-02-23T13:27:58;8.90;99.90
16879;DHT22;8556;52.218;9.884;2023-02-23T13:30:26;8.90;99.90
16879;DHT22;8556;52.218;9.884;2023-02-23T13:32:57;8.90;99.90
16879;DHT22;8556;52.218;9.884;2023-02-23T13:35:36;8.90;99.90
16879;DHT22;8556;52.218;9.884;2023-02-23T13:38:10;8.90;99.90
16879;DHT22;8556;52.218;9.884;2023-02-23T13:40:44;8.90;99.90
16879;DHT22;8556;52.218;9.884;2023-02-23T13:43:17;8.90;99.90
16879;DHT22;8556;52.218;9.884;2023-02-23T13:46:06;8.90;99.90
16879;DHT22;8556;52.218;9.884;2023-02-23T13:48:48;8.80;99.90
16879;DHT22;8556;52.218;9.884;2023-02-23T13:51:27;8.80;99.90
16879;DHT22;8556;52.218;9.884;2023-02-23T13:54:03;8.80;99.90
16879;DHT22;8556;52.218;9.884;2023-02-23T13:56:35;8.60;99.90
16879;DHT22;8556;52.218;9.884;2023-02-23T13:59:14;8.60;99.90
16879;DHT22;8556;52.218;9.884;2023-02-23T14:01:43;8.60;99.90
16879;DHT22;8556;52.218;9.884;2023-02-23T14:04:13;8.60;99.90
16879;DHT22;8556;52.218;9.884;2023-02-23T14:06:50;8.60;99.90
16879;DHT22;8556;52.218;9.884;2023-02-23T14:09:21;8.50;99.90
16879;DHT22;8556;52.218;9.884;2023-02-23T14:11:51;8.60;99.90
16879;DHT22;8556;52.218;9.884;2023-02-23T14:14:39;8.60;99.90
16879;DHT22;8556;52.218;9.884;2023-02-23T14:20:24;8.60;99.90
16879;DHT22;8556;52.218;9.884;2023-02-23T14:26:13;8.60;99.90
16879;DHT22;8556;52.218;9.884;2023-02-23T14:28:42;8.60;99.90
16879;DHT22;8556;52.218;9.884;2023-02-23T14:31:19;8.60;99.90
16879;DHT22;8556;52.218;9.884;2023-02-23T14:33:56;8.50;99.90
16879;DHT22;8556;52.218;9.884;2023-02-23T14:36:37;8.40;99.90
16879;DHT22;8556;52.218;9.884;2023-02-23T14:39:09;8.40;99.90
16879;DHT22;8556;52.218;9.884;2023-02-23T14:41:45;8.50;99.90
16879;DHT22;8556;52.218;9.884;2023-02-23T14:44:18;8.50;99.90
16879;DHT22;8556;52.218;9.884;2023-02-23T14:46:53;8.40;99.90
16879;DHT22;8556;52.218;9.884;2023-02-23T14:49:24;8.30;99.90
16879;DHT22;8556;52.218;9.884;2023-02-23T14:51:53;8.30;99.90
16879;DHT22;8556;52.218;9.884;2023-02-23T14:54:23;8.30;99.90
16879;DHT22;8556;52.218;9.884;2023-02-23T14:56:54;8.30;99.90
16879;DHT22;8556;52.218;9.884;2023-02-23T14:59:24;8.30;99.90
16879;DHT22;8556;52.218;9.884;2023-02-23T15:01:53;8.30;99.90
16879;DHT22;8556;52.218;9.884;2023-02-23T15:04:22;8.20;99.90
16879;DHT22;8556;52.218;9.884;2023-02-23T15:06:53;8.20;99.90
16879;DHT22;8556;52.218;9.884;2023-02-23T15:09:28;8.30;99.90
16879;DHT22;8556;52.218;9.884;2023-02-23T15:11:59;8.10;99.90
16879;DHT22;8556;52.218;9.884;2023-02-23T15:14:30;8.20;99.90
16879;DHT22;8556;52.218;9.884;2023-02-23T15:16:59;8.20;99.90
16879;DHT22;8556;52.218;9.884;2023-02-23T15:19:30;8.20;99.90
16879;DHT22;8556;52.218;9.884;2023-02-23T15:22:00;8.20;99.90
16879;DHT22;8556;52.218;9.884;2023-02-23T15:24:31;8.10;99.90
16879;DHT22;8556;52.218;9.884;2023-02-23T15:27:00;8.20;99.90
16879;DHT22;8556;52.218;9.884;2023-02-23T15:29:31;8.20;99.90
16879;DHT22;8556;52.218;9.884;2023-02-23T15:32:16;8.20;99.90
16879;DHT22;8556;52.218;9.884;2023-02-23T15:34:44;8.10;99.90
16879;DHT22;8556;52.218;9.884;2023-02-23T15:37:15;8.20;99.90
16879;DHT22;8556;52.218;9.884;2023-02-23T15:39:48;8.30;99.90
16879;DHT22;8556;52.218;9.884;2023-02-23T15:42:38;8.20;99.90
16879;DHT22;8556;52.218;9.884;2023-02-23T15:45:15;8.20;99.90
16879;DHT22;8556;52.218;9.884;2023-02-23T15:47:45;8.20;99.90
16879;DHT22;8556;52.218;9.884;2023-02-23T15:50:15;8.10;99.90
16879;DHT22;8556;52.218;9.884;2023-02-23T15:52:46;8.10;99.90
16879;DHT22;8556;52.218;9.884;2023-02-23T15:55:19;8.10;99.90
16879;DHT22;8556;52.218;9.884;2023-02-23T15:58:11;8.10;99.90
16879;DHT22;8556;52.218;9.884;2023-02-23T16:00:41;8.00;99.90
16879;DHT22;8556;52.218;9.884;2023-02-23T16:03:22;7.90;99.90
16879;DHT22;8556;52.218;9.884;2023-02-23T16:05:54;8.00;99.90
16879;DHT22;8556;52.218;9.884;2023-02-23T16:08:25;7.90;99.90
16879;DHT22;8556;52.218;9.884;2023-02-23T16:10:59;8.00;99.90
16879;DHT22;8556;52.218;9.884;2023-02-23T16:13:29;7.90;99.90
16879;DHT22;8556;52.218;9.884;2023-02-23T16:15:56;7.80;99.90
16879;DHT22;8556;52.218;9.884;2023-02-23T16:18:33;7.90;99.90
16879;DHT22;8556;52.218;9.884;2023-02-23T16:21:01;7.90;99.90
16879;DHT22;8556;52.218;9.884;2023-02-23T16:23:32;7.80;99.90
16879;DHT22;8556;52.218;9.884;2023-02-23T16:26:05;7.70;99.90
16879;DHT22;8556;52.218;9.884;2023-02-23T16:28:36;7.70;99.90
16879;DHT22;8556;52.218;9.884;2023-02-23T16:31:08;7.80;99.90
16879;DHT22;8556;52.218;9.884;2023-02-23T16:33:42;7.70;99.90
16879;DHT22;8556;52.218;9.884;2023-02-23T16:36:20;7.70;99.90
16879;DHT22;8556;52.218;9.884;2023-02-23T16:38:56;7.70;99.90
16879;DHT22;8556;52.218;9.884;2023-02-23T16:41:25;7.60;99.90
16879;DHT22;8556;52.218;9.884;2023-02-23T16:43:57;7.50;99.90